sensor_id;sensor_type;location;lat;lon;timestamp;P1;durP1;ratioP1;P2;durP2;ratioP2
4096;SDS011;2062;50.694;7.246;2022-11-15T00:01:08;8.13;;;3.15;;
4096;SDS011;2062;50.694;7.246;2022-11-15T00:03:35;6.97;;;2.80;;
4096;SDS011;2062;50.694;7.246;2022-11-15T00:06:02;8.05;;;2.83;;
4096;SDS011;2062;50.694;7.246;2022-11-15T00:08:30;5.82;;;2.58;;
4096;SDS011;2062;50.694;7.246;2022-11-15T00:10:57;7.23;;;3.23;;
4096;SDS011;2062;50.694;7.246;2022-11-15T00:13:25;6.05;;;2.67;;
4096;SDS011;2062;50.694;7.246;2022-11-15T00:15:56;8.23;;;2.95;;
4096;SDS011;2062;50.694;7.246;2022-11-15T00:18:23;6.18;;;2.75;;
4096;SDS011;2062;50.694;7.246;2022-11-15T00:20:50;7.65;;;2.83;;
4096;SDS011;2062;50.694;7.246;2022-11-15T00:23:16;6.83;;;2.77;;
4096;SDS011;2062;50.694;7.246;2022-11-15T00:25:43;7.30;;;3.00;;
4096;SDS011;2062;50.694;7.246;2022-11-15T00:28:10;7.82;;;2.95;;
4096;SDS011;2062;50.694;7.246;2022-11-15T00:30:37;6.60;;;2.88;;
4096;SDS011;2062;50.694;7.246;2022-11-15T00:33:05;7.15;;;2.80;;
4096;SDS011;2062;50.694;7.246;2022-11-15T00:35:32;6.97;;;3.17;;
4096;SDS011;2062;50.694;7.246;2022-11-15T00:38:00;7.63;;;3.10;;
4096;SDS011;2062;50.694;7.246;2022-11-15T00:40:27;6.72;;;3.08;;
4096;SDS011;2062;50.694;7.246;2022-11-15T00:42:55;8.05;;;2.85;;
4096;SDS011;2062;50.694;7.246;2022-11-15T00:45:21;7.82;;;3.00;;
4096;SDS011;2062;50.694;7.246;2022-11-15T00:47:48;7.13;;;3.27;;
4096;SDS011;2062;50.694;7.246;2022-11-15T00:50:17;7.22;;;2.90;;
4096;SDS011;2062;50.694;7.246;2022-11-15T00:52:44;6.97;;;2.97;;
4096;SDS011;2062;50.694;7.246;2022-11-15T00:55:12;7.90;;;2.70;;
4096;SDS011;2062;50.694;7.246;2022-11-15T00:57:40;6.35;;;3.20;;
4096;SDS011;2062;50.694;7.246;2022-11-15T01:00:07;6.80;;;2.77;;
4096;SDS011;2062;50.694;7.246;2022-11-15T01:02:35;7.57;;;2.80;;
4096;SDS011;2062;50.694;7.246;2022-11-15T01:05:02;6.07;;;2.63;;
4096;SDS011;2062;50.694;7.246;2022-11-15T01:07:30;6.68;;;2.42;;
4096;SDS011;2062;50.694;7.246;2022-11-15T01:09:57;6.60;;;2.95;;
4096;SDS011;2062;50.694;7.246;2022-11-15T01:12:24;6.63;;;2.97;;
4096;SDS011;2062;50.694;7.246;2022-11-15T01:14:50;7.03;;;3.08;;
4096;SDS011;2062;50.694;7.246;2022-11-15T01:17:18;6.85;;;3.08;;
4096;SDS011;2062;50.694;7.246;2022-11-15T01:19:45;6.25;;;2.88;;
4096;SDS011;2062;50.694;7.246;2022-11-15T01:22:12;6.80;;;2.72;;
4096;SDS011;2062;50.694;7.246;2022-11-15T01:24:40;7.43;;;2.50;;
4096;SDS011;2062;50.694;7.246;2022-11-15T01:27:07;6.82;;;2.70;;
4096;SDS011;2062;50.694;7.246;2022-11-15T01:29:34;6.38;;;2.70;;
4096;SDS011;2062;50.694;7.246;2022-11-15T01:32:01;6.00;;;2.45;;
4096;SDS011;2062;50.694;7.246;2022-11-15T01:34:28;6.75;;;2.70;;
4096;SDS011;2062;50.694;7.246;2022-11-15T01:36:54;6.03;;;2.80;;
4096;SDS011;2062;50.694;7.246;2022-11-15T01:39:21;6.50;;;2.85;;
4096;SDS011;2062;50.694;7.246;2022-11-15T01:41:49;6.40;;;2.70;;
4096;SDS011;2062;50.694;7.246;2022-11-15T01:44:36;7.05;;;2.67;;
4096;SDS011;2062;50.694;7.246;2022-11-15T01:47:07;6.75;;;2.55;;
4096;SDS011;2062;50.694;7.246;2022-11-15T01:49:38;6.33;;;2.50;;
4096;SDS011;2062;50.694;7.246;2022-11-15T01:52:09;5.75;;;2.58;;
4096;SDS011;2062;50.694;7.246;2022-11-15T01:54:39;6.95;;;3.10;;
4096;SDS011;2062;50.694;7.246;2022-11-15T01:57:08;6.28;;;2.38;;
4096;SDS011;2062;50.694;7.246;2022-11-15T01:59:36;5.32;;;2.63;;
4096;SDS011;2062;50.694;7.246;2022-11-15T02:02:05;6.63;;;2.67;;
4096;SDS011;2062;50.694;7.246;2022-11-15T02:04:32;7.05;;;2.78;;
4096;SDS011;2062;50.694;7.246;2022-11-15T02:07:04;6.60;;;2.45;;
4096;SDS011;2062;50.694;7.246;2022-11-15T02:09:31;5.60;;;2.42;;
4096;SDS011;2062;50.694;7.246;2022-11-15T02:11:58;6.97;;;2.63;;
4096;SDS011;2062;50.694;7.246;2022-11-15T02:14:27;5.67;;;2.50;;
4096;SDS011;2062;50.694;7.246;2022-11-15T02:16:57;5.70;;;2.38;;
4096;SDS011;2062;50.694;7.246;2022-11-15T02:19:37;5.85;;;2.53;;
4096;SDS011;2062;50.694;7.246;2022-11-15T02:22:20;6.28;;;2.72;;
4096;SDS011;2062;50.694;7.246;2022-11-15T02:25:17;5.35;;;2.70;;
4096;SDS011;2062;50.694;7.246;2022-11-15T02:30:59;5.90;;;2.50;;
4096;SDS011;2062;50.694;7.246;2022-11-15T02:33:33;6.43;;;2.50;;
4096;SDS011;2062;50.694;7.246;2022-11-15T02:36:05;5.93;;;2.30;;
4096;SDS011;2062;50.694;7.246;2022-11-15T02:38:37;5.65;;;2.42;;
4096;SDS011;2062;50.694;7.246;2022-11-15T02:41:08;5.43;;;2.50;;
4096;SDS011;2062;50.694;7.246;2022-11-15T02:43:40;5.95;;;2.33;;
4096;SDS011;2062;50.694;7.246;2022-11-15T02:46:26;6.97;;;2.42;;
4096;SDS011;2062;50.694;7.246;2022-11-15T02:49:15;5.03;;;2.28;;
4096;SDS011;2062;50.694;7.246;2022-11-15T02:51:43;5.75;;;2.40;;
4096;SDS011;2062;50.694;7.246;2022-11-15T02:54:13;5.70;;;2.20;;
4096;SDS011;2062;50.694;7.246;2022-11-15T02:56:42;5.53;;;2.45;;
4096;SDS011;2062;50.694;7.246;2022-11-15T02:59:18;5.43;;;2.50;;
4096;SDS011;2062;50.694;7.246;2022-11-15T03:02:10;5.65;;;2.47;;
4096;SDS011;2062;50.694;7.246;2022-11-15T03:04:44;5.05;;;2.63;;
4096;SDS011;2062;50.694;7.246;2022-11-15T03:07:21;5.77;;;2.40;;
4096;SDS011;2062;50.694;7.246;2022-11-15T03:09:56;5.53;;;2.40;;
4096;SDS011;2062;50.694;7.246;2022-11-15T03:12:30;5.20;;;2.20;;
4096;SDS011;2062;50.694;7.246;2022-11-15T03:15:01;5.57;;;2.33;;
4096;SDS011;2062;50.694;7.246;2022-11-15T03:17:34;5.30;;;2.40;;
4096;SDS011;2062;50.694;7.246;2022-11-15T03:20:04;5.03;;;2.07;;
4096;SDS011;2062;50.694;7.246;2022-11-15T03:22:34;5.35;;;2.40;;
4096;SDS011;2062;50.694;7.246;2022-11-15T03:25:06;5.55;;;2.63;;
4096;SDS011;2062;50.694;7.246;2022-11-15T03:27:37;5.65;;;2.40;;
4096;SDS011;2062;50.694;7.246;2022-11-15T03:30:08;5.22;;;2.30;;
4096;SDS011;2062;50.694;7.246;2022-11-15T03:32:39;4.87;;;2.07;;
4096;SDS011;2062;50.694;7.246;2022-11-15T03:35:11;5.38;;;2.30;;
4096;SDS011;2062;50.694;7.246;2022-11-15T03:37:41;6.85;;;2.47;;
4096;SDS011;2062;50.694;7.246;2022-11-15T03:40:11;5.80;;;2.45;;
4096;SDS011;2062;50.694;7.246;2022-11-15T03:42:41;4.78;;;2.30;;
4096;SDS011;2062;50.694;7.246;2022-11-15T03:45:13;5.90;;;2.47;;
4096;SDS011;2062;50.694;7.246;2022-11-15T03:47:45;4.95;;;2.10;;
4096;SDS011;2062;50.694;7.246;2022-11-15T03:50:16;4.97;;;2.45;;
4096;SDS011;2062;50.694;7.246;2022-11-15T03:52:45;5.63;;;2.15;;
4096;SDS011;2062;50.694;7.246;2022-11-15T03:55:14;5.00;;;2.20;;
4096;SDS011;2062;50.694;7.246;2022-11-15T03:57:43;5.40;;;2.07;;
4096;SDS011;2062;50.694;7.246;2022-11-15T04:00:10;4.78;;;1.88;;
4096;SDS011;2062;50.694;7.246;2022-11-15T04:02:38;5.65;;;2.30;;
4096;SDS011;2062;50.694;7.246;2022-11-15T04:05:06;5.00;;;2.20;;
4096;SDS011;2062;50.694;7.246;2022-11-15T04:07:33;5.68;;;2.28;;
4096;SDS011;2062;50.694;7.246;2022-11-15T04:10:00;4.60;;;2.00;;
4096;SDS011;2062;50.694;7.246;2022-11-15T04:12:30;5.43;;;2.25;;
4096;SDS011;2062;50.694;7.246;2022-11-15T04:14:58;5.03;;;2.28;;
4096;SDS011;2062;50.694;7.246;2022-11-15T04:17:35;4.43;;;2.10;;
4096;SDS011;2062;50.694;7.246;2022-11-15T04:20:03;5.13;;;2.08;;
4096;SDS011;2062;50.694;7.246;2022-11-15T04:22:51;6.10;;;2.20;;
4096;SDS011;2062;50.694;7.246;2022-11-15T04:25:36;4.60;;;1.90;;
4096;SDS011;2062;50.694;7.246;2022-11-15T04:28:03;4.53;;;2.03;;
4096;SDS011;2062;50.694;7.246;2022-11-15T04:30:30;5.63;;;2.45;;
4096;SDS011;2062;50.694;7.246;2022-11-15T04:32:57;4.90;;;2.38;;
4096;SDS011;2062;50.694;7.246;2022-11-15T04:35:25;5.03;;;2.10;;
4096;SDS011;2062;50.694;7.246;2022-11-15T04:37:52;4.45;;;1.98;;
4096;SDS011;2062;50.694;7.246;2022-11-15T04:40:18;5.32;;;2.40;;
4096;SDS011;2062;50.694;7.246;2022-11-15T04:42:45;4.40;;;1.90;;
4096;SDS011;2062;50.694;7.246;2022-11-15T04:45:12;5.20;;;2.00;;
4096;SDS011;2062;50.694;7.246;2022-11-15T04:47:39;4.37;;;1.97;;
4096;SDS011;2062;50.694;7.246;2022-11-15T04:50:06;4.50;;;1.77;;
4096;SDS011;2062;50.694;7.246;2022-11-15T04:52:34;5.13;;;2.33;;
4096;SDS011;2062;50.694;7.246;2022-11-15T04:55:01;4.40;;;1.92;;
4096;SDS011;2062;50.694;7.246;2022-11-15T04:57:28;4.55;;;1.90;;
4096;SDS011;2062;50.694;7.246;2022-11-15T04:59:54;4.77;;;2.13;;
4096;SDS011;2062;50.694;7.246;2022-11-15T05:02:21;5.40;;;2.10;;
4096;SDS011;2062;50.694;7.246;2022-11-15T05:04:48;5.05;;;2.20;;
4096;SDS011;2062;50.694;7.246;2022-11-15T05:07:14;4.53;;;1.77;;
4096;SDS011;2062;50.694;7.246;2022-11-15T05:09:42;4.33;;;1.83;;
4096;SDS011;2062;50.694;7.246;2022-11-15T05:12:09;5.03;;;2.20;;
4096;SDS011;2062;50.694;7.246;2022-11-15T05:14:35;4.50;;;2.00;;
4096;SDS011;2062;50.694;7.246;2022-11-15T05:17:02;4.57;;;2.15;;
4096;SDS011;2062;50.694;7.246;2022-11-15T05:19:29;4.68;;;1.90;;
4096;SDS011;2062;50.694;7.246;2022-11-15T05:21:55;13.07;;;2.17;;
4096;SDS011;2062;50.694;7.246;2022-11-15T05:24:22;5.65;;;1.50;;
4096;SDS011;2062;50.694;7.246;2022-11-15T05:26:50;7.35;;;2.10;;
4096;SDS011;2062;50.694;7.246;2022-11-15T05:29:17;7.50;;;1.92;;
4096;SDS011;2062;50.694;7.246;2022-11-15T05:31:44;5.38;;;2.05;;
4096;SDS011;2062;50.694;7.246;2022-11-15T05:34:10;5.13;;;1.90;;
4096;SDS011;2062;50.694;7.246;2022-11-15T05:36:38;7.35;;;1.90;;
4096;SDS011;2062;50.694;7.246;2022-11-15T05:39:07;5.45;;;2.03;;
4096;SDS011;2062;50.694;7.246;2022-11-15T05:41:35;6.28;;;1.90;;
4096;SDS011;2062;50.694;7.246;2022-11-15T05:44:06;4.78;;;1.70;;
4096;SDS011;2062;50.694;7.246;2022-11-15T05:46:35;6.67;;;1.67;;
4096;SDS011;2062;50.694;7.246;2022-11-15T05:49:04;5.95;;;1.85;;
4096;SDS011;2062;50.694;7.246;2022-11-15T05:51:35;7.55;;;1.95;;
4096;SDS011;2062;50.694;7.246;2022-11-15T05:54:02;6.43;;;1.63;;
4096;SDS011;2062;50.694;7.246;2022-11-15T05:56:29;6.68;;;1.83;;
4096;SDS011;2062;50.694;7.246;2022-11-15T05:58:56;6.53;;;1.50;;
4096;SDS011;2062;50.694;7.246;2022-11-15T06:01:25;4.05;;;1.48;;
4096;SDS011;2062;50.694;7.246;2022-11-15T06:03:53;5.70;;;1.85;;
4096;SDS011;2062;50.694;7.246;2022-11-15T06:06:20;6.82;;;1.95;;
4096;SDS011;2062;50.694;7.246;2022-11-15T06:08:47;6.30;;;2.00;;
4096;SDS011;2062;50.694;7.246;2022-11-15T06:11:13;7.10;;;1.60;;
4096;SDS011;2062;50.694;7.246;2022-11-15T06:13:40;6.72;;;2.00;;
4096;SDS011;2062;50.694;7.246;2022-11-15T06:16:07;5.10;;;2.00;;
4096;SDS011;2062;50.694;7.246;2022-11-15T06:18:35;4.40;;;1.70;;
4096;SDS011;2062;50.694;7.246;2022-11-15T06:21:03;5.68;;;1.70;;
4096;SDS011;2062;50.694;7.246;2022-11-15T06:23:31;5.13;;;1.60;;
4096;SDS011;2062;50.694;7.246;2022-11-15T06:25:59;7.30;;;2.00;;
4096;SDS011;2062;50.694;7.246;2022-11-15T06:28:27;9.93;;;1.90;;
4096;SDS011;2062;50.694;7.246;2022-11-15T06:30:55;5.13;;;1.73;;
4096;SDS011;2062;50.694;7.246;2022-11-15T06:33:22;6.93;;;1.95;;
4096;SDS011;2062;50.694;7.246;2022-11-15T06:35:50;6.83;;;1.60;;
4096;SDS011;2062;50.694;7.246;2022-11-15T06:38:17;7.10;;;1.65;;
4096;SDS011;2062;50.694;7.246;2022-11-15T06:40:43;5.30;;;1.90;;
4096;SDS011;2062;50.694;7.246;2022-11-15T06:43:10;5.05;;;1.70;;
4096;SDS011;2062;50.694;7.246;2022-11-15T06:45:37;4.43;;;1.65;;
4096;SDS011;2062;50.694;7.246;2022-11-15T06:48:04;11.60;;;1.83;;
4096;SDS011;2062;50.694;7.246;2022-11-15T06:50:32;6.28;;;1.98;;
4096;SDS011;2062;50.694;7.246;2022-11-15T06:53:02;6.15;;;1.67;;
4096;SDS011;2062;50.694;7.246;2022-11-15T06:55:29;6.57;;;1.60;;
4096;SDS011;2062;50.694;7.246;2022-11-15T06:57:56;6.90;;;2.00;;
4096;SDS011;2062;50.694;7.246;2022-11-15T07:00:23;4.87;;;1.70;;
4096;SDS011;2062;50.694;7.246;2022-11-15T07:02:49;6.05;;;1.80;;
4096;SDS011;2062;50.694;7.246;2022-11-15T07:05:16;5.47;;;1.90;;
4096;SDS011;2062;50.694;7.246;2022-11-15T07:07:43;6.78;;;1.88;;
4096;SDS011;2062;50.694;7.246;2022-11-15T07:10:18;5.60;;;1.90;;
4096;SDS011;2062;50.694;7.246;2022-11-15T07:12:46;5.13;;;1.70;;
4096;SDS011;2062;50.694;7.246;2022-11-15T07:15:13;8.00;;;1.70;;
4096;SDS011;2062;50.694;7.246;2022-11-15T07:17:40;7.03;;;1.70;;
4096;SDS011;2062;50.694;7.246;2022-11-15T07:20:07;7.32;;;1.70;;
4096;SDS011;2062;50.694;7.246;2022-11-15T07:22:35;5.88;;;1.67;;
4096;SDS011;2062;50.694;7.246;2022-11-15T07:25:02;5.47;;;1.70;;
4096;SDS011;2062;50.694;7.246;2022-11-15T07:27:30;5.70;;;1.63;;
4096;SDS011;2062;50.694;7.246;2022-11-15T07:29:57;5.43;;;1.50;;
4096;SDS011;2062;50.694;7.246;2022-11-15T07:32:24;4.07;;;1.55;;
4096;SDS011;2062;50.694;7.246;2022-11-15T07:34:51;4.75;;;1.77;;
4096;SDS011;2062;50.694;7.246;2022-11-15T07:37:18;7.53;;;1.57;;
4096;SDS011;2062;50.694;7.246;2022-11-15T07:39:45;4.75;;;1.73;;
4096;SDS011;2062;50.694;7.246;2022-11-15T07:42:11;5.85;;;2.13;;
4096;SDS011;2062;50.694;7.246;2022-11-15T07:44:57;5.68;;;1.73;;
4096;SDS011;2062;50.694;7.246;2022-11-15T07:47:24;6.55;;;1.50;;
4096;SDS011;2062;50.694;7.246;2022-11-15T07:49:50;3.70;;;1.43;;
4096;SDS011;2062;50.694;7.246;2022-11-15T07:52:17;4.22;;;1.58;;
4096;SDS011;2062;50.694;7.246;2022-11-15T07:54:44;4.97;;;1.50;;
4096;SDS011;2062;50.694;7.246;2022-11-15T07:57:11;4.68;;;1.20;;
4096;SDS011;2062;50.694;7.246;2022-11-15T07:59:38;3.97;;;1.33;;
4096;SDS011;2062;50.694;7.246;2022-11-15T08:02:08;5.57;;;1.70;;
4096;SDS011;2062;50.694;7.246;2022-11-15T08:04:34;4.10;;;1.50;;
4096;SDS011;2062;50.694;7.246;2022-11-15T08:07:01;6.00;;;1.50;;
4096;SDS011;2062;50.694;7.246;2022-11-15T08:09:28;4.50;;;1.40;;
4096;SDS011;2062;50.694;7.246;2022-11-15T08:11:55;4.35;;;1.70;;
4096;SDS011;2062;50.694;7.246;2022-11-15T08:14:21;4.80;;;1.57;;
4096;SDS011;2062;50.694;7.246;2022-11-15T08:16:48;4.27;;;1.50;;
4096;SDS011;2062;50.694;7.246;2022-11-15T08:19:16;4.30;;;1.50;;
4096;SDS011;2062;50.694;7.246;2022-11-15T08:21:43;4.47;;;1.63;;
4096;SDS011;2062;50.694;7.246;2022-11-15T08:24:10;3.78;;;1.50;;
4096;SDS011;2062;50.694;7.246;2022-11-15T08:26:37;5.47;;;1.75;;
4096;SDS011;2062;50.694;7.246;2022-11-15T08:29:04;4.33;;;1.63;;
4096;SDS011;2062;50.694;7.246;2022-11-15T08:31:32;4.93;;;1.50;;
4096;SDS011;2062;50.694;7.246;2022-11-15T08:33:59;4.45;;;1.55;;
4096;SDS011;2062;50.694;7.246;2022-11-15T08:36:28;4.45;;;1.48;;
4096;SDS011;2062;50.694;7.246;2022-11-15T08:38:55;4.75;;;1.50;;
4096;SDS011;2062;50.694;7.246;2022-11-15T08:41:23;4.13;;;1.40;;
4096;SDS011;2062;50.694;7.246;2022-11-15T08:43:52;4.32;;;1.80;;
4096;SDS011;2062;50.694;7.246;2022-11-15T08:46:19;4.93;;;1.40;;
4096;SDS011;2062;50.694;7.246;2022-11-15T08:48:46;4.85;;;1.50;;
4096;SDS011;2062;50.694;7.246;2022-11-15T08:51:13;4.90;;;1.50;;
4096;SDS011;2062;50.694;7.246;2022-11-15T08:53:41;5.03;;;1.40;;
4096;SDS011;2062;50.694;7.246;2022-11-15T08:56:09;5.07;;;1.40;;
4096;SDS011;2062;50.694;7.246;2022-11-15T08:58:37;4.10;;;1.65;;
4096;SDS011;2062;50.694;7.246;2022-11-15T09:01:04;4.20;;;1.40;;
4096;SDS011;2062;50.694;7.246;2022-11-15T09:03:31;5.20;;;1.50;;
4096;SDS011;2062;50.694;7.246;2022-11-15T09:05:59;4.40;;;1.20;;
4096;SDS011;2062;50.694;7.246;2022-11-15T09:08:29;4.20;;;1.30;;
4096;SDS011;2062;50.694;7.246;2022-11-15T09:10:58;4.00;;;1.50;;
4096;SDS011;2062;50.694;7.246;2022-11-15T09:13:28;4.50;;;1.50;;
4096;SDS011;2062;50.694;7.246;2022-11-15T09:15:56;5.88;;;1.50;;
4096;SDS011;2062;50.694;7.246;2022-11-15T09:18:23;5.40;;;1.33;;
4096;SDS011;2062;50.694;7.246;2022-11-15T09:20:50;5.25;;;1.35;;
4096;SDS011;2062;50.694;7.246;2022-11-15T09:23:17;5.13;;;1.58;;
4096;SDS011;2062;50.694;7.246;2022-11-15T09:25:44;4.65;;;1.38;;
4096;SDS011;2062;50.694;7.246;2022-11-15T09:28:12;5.65;;;1.40;;
4096;SDS011;2062;50.694;7.246;2022-11-15T09:30:38;3.67;;;1.13;;
4096;SDS011;2062;50.694;7.246;2022-11-15T09:33:06;4.13;;;1.20;;
4096;SDS011;2062;50.694;7.246;2022-11-15T09:35:33;4.13;;;1.40;;
4096;SDS011;2062;50.694;7.246;2022-11-15T09:38:00;4.28;;;1.30;;
4096;SDS011;2062;50.694;7.246;2022-11-15T09:40:27;3.97;;;1.42;;
4096;SDS011;2062;50.694;7.246;2022-11-15T09:43:00;4.27;;;1.20;;
4096;SDS011;2062;50.694;7.246;2022-11-15T09:45:37;5.43;;;1.42;;
4096;SDS011;2062;50.694;7.246;2022-11-15T09:48:23;3.80;;;1.55;;
4096;SDS011;2062;50.694;7.246;2022-11-15T09:51:01;4.45;;;1.23;;
4096;SDS011;2062;50.694;7.246;2022-11-15T09:53:34;4.03;;;1.40;;
4096;SDS011;2062;50.694;7.246;2022-11-15T09:56:10;5.27;;;1.43;;
4096;SDS011;2062;50.694;7.246;2022-11-15T09:58:43;4.88;;;1.40;;
4096;SDS011;2062;50.694;7.246;2022-11-15T10:01:22;3.90;;;1.30;;
4096;SDS011;2062;50.694;7.246;2022-11-15T10:04:01;4.22;;;1.17;;
4096;SDS011;2062;50.694;7.246;2022-11-15T10:06:28;4.10;;;1.20;;
4096;SDS011;2062;50.694;7.246;2022-11-15T10:08:57;5.90;;;1.73;;
4096;SDS011;2062;50.694;7.246;2022-11-15T10:11:29;4.32;;;0.90;;
4096;SDS011;2062;50.694;7.246;2022-11-15T10:13:59;4.88;;;1.23;;
4096;SDS011;2062;50.694;7.246;2022-11-15T10:16:35;4.35;;;1.20;;
4096;SDS011;2062;50.694;7.246;2022-11-15T10:19:17;3.80;;;1.20;;
4096;SDS011;2062;50.694;7.246;2022-11-15T10:21:52;3.80;;;1.20;;
4096;SDS011;2062;50.694;7.246;2022-11-15T10:24:27;3.75;;;1.15;;
4096;SDS011;2062;50.694;7.246;2022-11-15T10:26:58;4.03;;;1.10;;
4096;SDS011;2062;50.694;7.246;2022-11-15T10:29:24;3.75;;;1.15;;
4096;SDS011;2062;50.694;7.246;2022-11-15T10:31:53;3.47;;;1.10;;
4096;SDS011;2062;50.694;7.246;2022-11-15T10:34:21;4.20;;;1.20;;
4096;SDS011;2062;50.694;7.246;2022-11-15T10:36:54;3.33;;;1.10;;
4096;SDS011;2062;50.694;7.246;2022-11-15T10:39:22;4.97;;;1.20;;
4096;SDS011;2062;50.694;7.246;2022-11-15T10:41:49;3.88;;;1.30;;
4096;SDS011;2062;50.694;7.246;2022-11-15T10:44:20;4.32;;;1.10;;
4096;SDS011;2062;50.694;7.246;2022-11-15T10:49:59;4.95;;;1.00;;
4096;SDS011;2062;50.694;7.246;2022-11-15T10:52:28;3.75;;;1.38;;
4096;SDS011;2062;50.694;7.246;2022-11-15T10:54:57;3.40;;;1.10;;
4096;SDS011;2062;50.694;7.246;2022-11-15T10:57:29;3.40;;;1.20;;
4096;SDS011;2062;50.694;7.246;2022-11-15T10:59:59;3.47;;;0.90;;
4096;SDS011;2062;50.694;7.246;2022-11-15T11:02:33;4.40;;;1.20;;
4096;SDS011;2062;50.694;7.246;2022-11-15T11:05:04;3.60;;;1.10;;
4096;SDS011;2062;50.694;7.246;2022-11-15T11:07:33;4.70;;;1.30;;
4096;SDS011;2062;50.694;7.246;2022-11-15T11:10:03;3.92;;;1.10;;
4096;SDS011;2062;50.694;7.246;2022-11-15T11:12:33;3.70;;;1.27;;
4096;SDS011;2062;50.694;7.246;2022-11-15T11:15:00;4.53;;;1.20;;
4096;SDS011;2062;50.694;7.246;2022-11-15T11:17:38;3.50;;;1.20;;
4096;SDS011;2062;50.694;7.246;2022-11-15T11:20:20;3.63;;;0.88;;
4096;SDS011;2062;50.694;7.246;2022-11-15T11:23:00;3.83;;;1.20;;
4096;SDS011;2062;50.694;7.246;2022-11-15T11:25:44;3.30;;;1.00;;
4096;SDS011;2062;50.694;7.246;2022-11-15T11:28:20;2.95;;;1.00;;
4096;SDS011;2062;50.694;7.246;2022-11-15T11:30:58;3.45;;;0.95;;
4096;SDS011;2062;50.694;7.246;2022-11-15T11:33:36;4.25;;;1.10;;
4096;SDS011;2062;50.694;7.246;2022-11-15T11:36:15;4.10;;;1.10;;
4096;SDS011;2062;50.694;7.246;2022-11-15T11:38:50;3.47;;;1.00;;
4096;SDS011;2062;50.694;7.246;2022-11-15T11:41:27;3.35;;;0.95;;
4096;SDS011;2062;50.694;7.246;2022-11-15T11:44:07;3.65;;;1.02;;
4096;SDS011;2062;50.694;7.246;2022-11-15T11:46:47;3.90;;;0.98;;
4096;SDS011;2062;50.694;7.246;2022-11-15T11:49:19;3.30;;;1.23;;
4096;SDS011;2062;50.694;7.246;2022-11-15T11:51:53;4.60;;;0.90;;
4096;SDS011;2062;50.694;7.246;2022-11-15T11:54:29;3.30;;;0.80;;
4096;SDS011;2062;50.694;7.246;2022-11-15T11:57:03;3.55;;;1.10;;
4096;SDS011;2062;50.694;7.246;2022-11-15T11:59:37;3.60;;;1.02;;
4096;SDS011;2062;50.694;7.246;2022-11-15T12:02:11;4.25;;;1.23;;
4096;SDS011;2062;50.694;7.246;2022-11-15T12:04:43;4.13;;;1.00;;
4096;SDS011;2062;50.694;7.246;2022-11-15T12:07:15;3.55;;;1.00;;
4096;SDS011;2062;50.694;7.246;2022-11-15T12:09:48;3.35;;;1.00;;
4096;SDS011;2062;50.694;7.246;2022-11-15T12:12:21;3.05;;;1.00;;
4096;SDS011;2062;50.694;7.246;2022-11-15T12:14:54;3.50;;;1.10;;
4096;SDS011;2062;50.694;7.246;2022-11-15T12:17:24;4.57;;;1.00;;
4096;SDS011;2062;50.694;7.246;2022-11-15T12:19:52;3.70;;;1.00;;
4096;SDS011;2062;50.694;7.246;2022-11-15T12:22:29;4.68;;;1.20;;
4096;SDS011;2062;50.694;7.246;2022-11-15T12:25:05;3.95;;;0.90;;
4096;SDS011;2062;50.694;7.246;2022-11-15T12:27:40;4.20;;;1.13;;
4096;SDS011;2062;50.694;7.246;2022-11-15T12:30:11;3.30;;;1.20;;
4096;SDS011;2062;50.694;7.246;2022-11-15T12:32:48;5.07;;;1.20;;
4096;SDS011;2062;50.694;7.246;2022-11-15T12:35:21;3.83;;;0.90;;
4096;SDS011;2062;50.694;7.246;2022-11-15T12:37:53;3.20;;;1.00;;
4096;SDS011;2062;50.694;7.246;2022-11-15T12:40:34;3.45;;;1.10;;
4096;SDS011;2062;50.694;7.246;2022-11-15T12:43:04;3.50;;;1.10;;
4096;SDS011;2062;50.694;7.246;2022-11-15T12:46:00;3.40;;;0.90;;
4096;SDS011;2062;50.694;7.246;2022-11-15T12:57:31;4.33;;;0.93;;
4096;SDS011;2062;50.694;7.246;2022-11-15T13:00:00;5.30;;;1.10;;
4096;SDS011;2062;50.694;7.246;2022-11-15T13:02:32;3.00;;;0.90;;
4096;SDS011;2062;50.694;7.246;2022-11-15T13:08:12;3.88;;;1.08;;
4096;SDS011;2062;50.694;7.246;2022-11-15T13:14:07;4.43;;;0.90;;
4096;SDS011;2062;50.694;7.246;2022-11-15T13:19:58;4.55;;;1.10;;
4096;SDS011;2062;50.694;7.246;2022-11-15T13:22:41;5.40;;;1.30;;
4096;SDS011;2062;50.694;7.246;2022-11-15T13:25:22;4.50;;;1.20;;
4096;SDS011;2062;50.694;7.246;2022-11-15T13:28:09;5.97;;;1.20;;
4096;SDS011;2062;50.694;7.246;2022-11-15T13:30:40;5.28;;;1.27;;
4096;SDS011;2062;50.694;7.246;2022-11-15T13:33:17;4.53;;;1.20;;
4096;SDS011;2062;50.694;7.246;2022-11-15T13:35:46;6.03;;;1.20;;
4096;SDS011;2062;50.694;7.246;2022-11-15T13:38:17;3.80;;;1.03;;
4096;SDS011;2062;50.694;7.246;2022-11-15T13:40:51;4.35;;;1.35;;
4096;SDS011;2062;50.694;7.246;2022-11-15T13:43:23;3.88;;;1.10;;
4096;SDS011;2062;50.694;7.246;2022-11-15T13:46:05;8.50;;;1.38;;
4096;SDS011;2062;50.694;7.246;2022-11-15T13:48:33;4.07;;;1.20;;
4096;SDS011;2062;50.694;7.246;2022-11-15T13:51:01;3.00;;;0.80;;
4096;SDS011;2062;50.694;7.246;2022-11-15T13:53:31;5.82;;;1.02;;
4096;SDS011;2062;50.694;7.246;2022-11-15T13:55:59;4.05;;;1.02;;
4096;SDS011;2062;50.694;7.246;2022-11-15T13:58:28;4.93;;;1.23;;
4096;SDS011;2062;50.694;7.246;2022-11-15T14:00:59;5.78;;;1.30;;
4096;SDS011;2062;50.694;7.246;2022-11-15T14:03:29;4.27;;;1.10;;
4096;SDS011;2062;50.694;7.246;2022-11-15T14:06:02;5.20;;;1.30;;
4096;SDS011;2062;50.694;7.246;2022-11-15T14:08:36;4.10;;;1.30;;
4096;SDS011;2062;50.694;7.246;2022-11-15T14:11:08;7.10;;;1.05;;
4096;SDS011;2062;50.694;7.246;2022-11-15T14:13:39;3.97;;;1.00;;
4096;SDS011;2062;50.694;7.246;2022-11-15T14:16:16;3.70;;;1.10;;
4096;SDS011;2062;50.694;7.246;2022-11-15T14:18:48;4.85;;;1.20;;
4096;SDS011;2062;50.694;7.246;2022-11-15T14:21:17;7.10;;;1.30;;
4096;SDS011;2062;50.694;7.246;2022-11-15T14:23:45;3.78;;;1.23;;
4096;SDS011;2062;50.694;7.246;2022-11-15T14:26:27;4.90;;;1.30;;
4096;SDS011;2062;50.694;7.246;2022-11-15T14:28:55;3.97;;;1.30;;
4096;SDS011;2062;50.694;7.246;2022-11-15T14:31:22;4.85;;;1.20;;
4096;SDS011;2062;50.694;7.246;2022-11-15T14:33:50;6.75;;;1.33;;
4096;SDS011;2062;50.694;7.246;2022-11-15T14:36:18;3.63;;;1.00;;
4096;SDS011;2062;50.694;7.246;2022-11-15T14:38:46;5.47;;;1.17;;
4096;SDS011;2062;50.694;7.246;2022-11-15T14:41:23;4.77;;;1.30;;
4096;SDS011;2062;50.694;7.246;2022-11-15T14:43:51;5.57;;;1.20;;
4096;SDS011;2062;50.694;7.246;2022-11-15T14:46:19;4.55;;;1.50;;
4096;SDS011;2062;50.694;7.246;2022-11-15T14:48:46;4.82;;;1.40;;
4096;SDS011;2062;50.694;7.246;2022-11-15T14:51:15;8.50;;;1.90;;
4096;SDS011;2062;50.694;7.246;2022-11-15T14:53:43;6.90;;;1.90;;
4096;SDS011;2062;50.694;7.246;2022-11-15T14:56:11;8.18;;;1.98;;
4096;SDS011;2062;50.694;7.246;2022-11-15T14:58:39;6.80;;;2.03;;
4096;SDS011;2062;50.694;7.246;2022-11-15T15:01:10;5.22;;;1.70;;
4096;SDS011;2062;50.694;7.246;2022-11-15T15:03:39;5.35;;;1.80;;
4096;SDS011;2062;50.694;7.246;2022-11-15T15:06:06;6.50;;;1.60;;
4096;SDS011;2062;50.694;7.246;2022-11-15T15:08:35;5.15;;;1.40;;
4096;SDS011;2062;50.694;7.246;2022-11-15T15:11:03;5.10;;;2.25;;
4096;SDS011;2062;50.694;7.246;2022-11-15T15:13:35;4.47;;;1.30;;
4096;SDS011;2062;50.694;7.246;2022-11-15T15:16:02;4.53;;;1.60;;
4096;SDS011;2062;50.694;7.246;2022-11-15T15:18:29;5.50;;;1.50;;
4096;SDS011;2062;50.694;7.246;2022-11-15T15:20:56;4.63;;;1.30;;
4096;SDS011;2062;50.694;7.246;2022-11-15T15:23:27;5.13;;;1.30;;
4096;SDS011;2062;50.694;7.246;2022-11-15T15:25:57;6.30;;;1.70;;
4096;SDS011;2062;50.694;7.246;2022-11-15T15:28:24;4.90;;;1.67;;
4096;SDS011;2062;50.694;7.246;2022-11-15T15:30:52;4.37;;;1.60;;
4096;SDS011;2062;50.694;7.246;2022-11-15T15:33:19;6.15;;;1.60;;
4096;SDS011;2062;50.694;7.246;2022-11-15T15:35:46;4.30;;;1.30;;
4096;SDS011;2062;50.694;7.246;2022-11-15T15:38:13;5.30;;;1.60;;
4096;SDS011;2062;50.694;7.246;2022-11-15T15:40:40;5.30;;;1.77;;
4096;SDS011;2062;50.694;7.246;2022-11-15T15:43:08;4.63;;;1.67;;
4096;SDS011;2062;50.694;7.246;2022-11-15T15:45:36;5.78;;;1.50;;
4096;SDS011;2062;50.694;7.246;2022-11-15T15:48:04;4.47;;;1.45;;
4096;SDS011;2062;50.694;7.246;2022-11-15T15:50:32;5.90;;;1.60;;
4096;SDS011;2062;50.694;7.246;2022-11-15T15:53:01;6.25;;;1.80;;
4096;SDS011;2062;50.694;7.246;2022-11-15T15:55:29;4.80;;;1.60;;
4096;SDS011;2062;50.694;7.246;2022-11-15T15:57:56;5.05;;;1.65;;